Time;durP1;ratioP1;P1;durP2;ratioP2;P2;SDS_P1;SDS_P2;PMS_P1;PMS_P2;Temp;Humidity;BMP_temperature;BMP_pressure;BME280_temperature;BME280_humidity;BME280_pressure;Samples;Min_cycle;Max_cycle;Signal;HPM_P1;HPM_P2
2023/09/11 00:00:26;;;;;;;7.87;7.27;;;29.10;48.60;;;;;;5010067;28;20437;-45
2023/09/11 00:02:51;;;;;;;7.50;6.90;;;29.10;49.20;;;;;;5008145;28;20321;-44
2023/09/11 00:05:17;;;;;;;9.80;8.57;;;29.10;48.60;;;;;;5009754;28;20193;-43
2023/09/11 00:07:42;;;;;;;7.53;7.03;;;29.00;48.60;;;;;;5008477;28;20195;-43
2023/09/11 00:10:08;;;;;;;8.90;8.20;;;29.00;48.80;;;;;;5010327;28;20182;-44
2023/09/11 00:12:34;;;;;;;8.70;8.00;;;29.00;48.90;;;;;;5007124;28;20196;-43
2023/09/11 00:14:59;;;;;;;8.10;7.40;;;28.90;48.90;;;;;;5006854;28;20932;-45
2023/09/11 00:17:25;;;;;;;8.17;7.47;;;28.90;48.80;;;;;;5006434;28;20202;-45
2023/09/11 00:19:50;;;;;;;9.20;8.30;;;28.90;48.90;;;;;;5006756;28;20630;-48
2023/09/11 00:22:16;;;;;;;8.70;7.53;;;28.90;49.00;;;;;;5005227;28;20217;-44
2023/09/11 00:24:41;;;;;;;8.27;7.67;;;28.90;49.10;;;;;;5010368;28;20661;-44
2023/09/11 00:27:07;;;;;;;13.80;8.60;;;28.90;49.10;;;;;;5010058;28;20198;-45
2023/09/11 00:29:33;;;;;;;8.07;7.33;;;28.80;49.10;;;;;;5009987;28;20244;-44
2023/09/11 00:31:58;;;;;;;8.80;8.10;;;28.80;49.20;;;;;;5010809;28;20201;-43
2023/09/11 00:34:24;;;;;;;8.77;7.97;;;28.80;49.30;;;;;;5010433;28;20190;-43
2023/09/11 00:36:49;;;;;;;8.60;7.80;;;28.80;49.30;;;;;;5010176;28;20715;-45
2023/09/11 00:39:15;;;;;;;7.90;7.20;;;28.70;49.30;;;;;;5010854;28;20208;-43
2023/09/11 00:41:42;;;;;;;8.97;7.50;;;28.70;49.30;;;;;;5008406;28;20182;-45
2023/09/11 00:44:08;;;;;;;8.80;8.00;;;28.70;49.50;;;;;;5006318;28;20613;-43
2023/09/11 00:46:34;;;;;;;8.80;8.10;;;28.60;49.50;;;;;;5009937;28;20453;-46
2023/09/11 00:49:00;;;;;;;7.73;7.13;;;28.60;49.60;;;;;;5011225;28;20659;-43
2023/09/11 00:51:26;;;;;;;8.13;7.43;;;28.60;49.50;;;;;;5004534;28;20681;-44
2023/09/11 00:53:53;;;;;;;8.43;7.63;;;28.60;49.60;;;;;;5006226;28;20908;-43
2023/09/11 00:56:19;;;;;;;9.17;8.50;;;28.60;49.60;;;;;;5007410;28;20449;-43
2023/09/11 00:58:45;;;;;;;8.93;8.13;;;28.60;49.60;;;;;;5014556;28;20452;-45
2023/09/11 01:01:12;;;;;;;9.30;8.50;;;28.60;49.60;;;;;;5012189;28;20445;-43
2023/09/11 01:03:38;;;;;;;9.33;8.07;;;28.60;49.60;;;;;;5012103;28;20841;-43
2023/09/11 01:06:03;;;;;;;8.70;7.90;;;28.60;49.60;;;;;;5013866;28;20444;-43
2023/09/11 01:08:29;;;;;;;8.60;7.80;;;28.50;49.60;;;;;;5008674;28;20249;-46
2023/09/11 01:10:56;;;;;;;8.43;7.30;;;28.60;49.70;;;;;;5012100;28;20201;-43
2023/09/11 01:13:23;;;;;;;7.73;7.23;;;28.60;49.70;;;;;;5012391;28;20226;-44
2023/09/11 01:16:13;;;;;;;9.90;8.40;;;28.50;49.60;;;;;;5011046;28;20443;-43
2023/09/11 01:18:48;;;;;;;9.20;8.37;;;28.40;49.80;;;;;;5001722;28;20960;-43
2023/09/11 01:21:40;;;;;;;9.00;8.10;;;28.40;50.20;;;;;;5007666;28;20967;-43
2023/09/11 01:24:33;;;;;;;9.67;8.63;;;28.40;50.20;;;;;;5012965;28;20524;-43
2023/09/11 01:27:12;;;;;;;8.40;7.70;;;28.40;50.20;;;;;;5008666;28;20437;-43
2023/09/11 01:29:40;;;;;;;7.83;7.13;;;28.40;50.20;;;;;;5011533;28;20506;-43
2023/09/11 01:32:07;;;;;;;10.10;7.40;;;28.40;50.20;;;;;;5009647;28;20878;-45
2023/09/11 01:34:33;;;;;;;8.83;7.93;;;28.40;50.20;;;;;;5005081;28;20453;-44
2023/09/11 01:36:58;;;;;;;8.50;7.80;;;28.40;50.10;;;;;;5006274;28;20452;-45
2023/09/11 01:39:24;;;;;;;10.80;7.47;;;28.40;50.10;;;;;;5011888;28;20202;-44
2023/09/11 01:41:53;;;;;;;9.70;8.77;;;28.40;50.10;;;;;;5014511;28;20197;-44
2023/09/11 01:44:29;;;;;;;8.67;7.97;;;28.40;50.10;;;;;;5014828;28;20200;-44
2023/09/11 01:46:57;;;;;;;8.70;8.00;;;28.40;50.10;;;;;;5012077;28;21073;-43
2023/09/11 01:49:24;;;;;;;8.00;7.30;;;28.40;50.10;;;;;;5006597;28;20538;-43
2023/09/11 01:51:52;;;;;;;11.60;8.10;;;28.40;50.10;;;;;;5008584;28;20865;-45
2023/09/11 01:54:19;;;;;;;8.93;7.47;;;28.40;50.10;;;;;;5010639;28;20580;-43
2023/09/11 01:56:45;;;;;;;8.20;7.40;;;28.40;50.10;;;;;;5011512;28;20440;-44
2023/09/11 01:59:14;;;;;;;8.70;8.00;;;28.40;50.00;;;;;;5012268;28;20800;-44
2023/09/11 02:01:39;;;;;;;7.80;7.10;;;28.40;50.10;;;;;;5009266;28;20204;-43
2023/09/11 02:04:05;;;;;;;8.07;7.43;;;28.40;50.00;;;;;;5009758;28;20854;-45
2023/09/11 02:06:31;;;;;;;9.27;8.43;;;28.40;50.10;;;;;;5007582;28;20223;-43
2023/09/11 02:08:56;;;;;;;8.63;7.87;;;28.40;50.20;;;;;;5010696;28;20567;-43
2023/09/11 02:11:22;;;;;;;9.03;8.20;;;28.30;50.10;;;;;;5010797;28;20211;-45
2023/09/11 02:13:48;;;;;;;8.10;7.40;;;28.30;50.30;;;;;;5010639;28;20265;-45
2023/09/11 02:16:13;;;;;;;9.40;8.60;;;28.20;50.40;;;;;;5009624;28;20198;-43
2023/09/11 02:18:39;;;;;;;10.53;7.80;;;28.20;50.50;;;;;;5010399;28;20209;-44
2023/09/11 02:21:05;;;;;;;9.30;8.40;;;28.10;50.60;;;;;;5009702;28;20218;-43
2023/09/11 02:23:31;;;;;;;10.43;7.80;;;28.10;50.80;;;;;;5010209;28;20236;-44
2023/09/11 02:25:57;;;;;;;9.70;8.77;;;28.00;50.70;;;;;;5013731;28;20197;-43
2023/09/11 02:28:22;;;;;;;9.60;8.80;;;28.00;50.80;;;;;;5013393;28;20221;-45
2023/09/11 02:30:48;;;;;;;11.43;7.83;;;27.80;51.20;;;;;;5012421;28;20202;-44
2023/09/11 02:33:14;;;;;;;8.40;7.60;;;27.80;51.40;;;;;;5011399;28;20265;-43
2023/09/11 02:35:39;;;;;;;8.00;7.03;;;27.80;51.30;;;;;;5013931;28;20202;-43
2023/09/11 02:38:05;;;;;;;8.93;8.13;;;27.80;51.20;;;;;;5011162;28;20661;-47
2023/09/11 02:40:31;;;;;;;8.77;7.93;;;27.80;51.30;;;;;;5009604;28;20197;-43
2023/09/11 02:42:56;;;;;;;9.70;8.90;;;27.80;51.20;;;;;;5013008;28;20204;-43
2023/09/11 02:45:22;;;;;;;8.57;7.77;;;27.80;51.30;;;;;;5013123;28;20610;-43
2023/09/11 02:47:47;;;;;;;9.77;8.13;;;27.80;51.30;;;;;;5013278;28;20220;-43
2023/09/11 02:50:13;;;;;;;9.80;9.03;;;27.80;51.30;;;;;;5014158;28;20653;-43
2023/09/11 02:52:39;;;;;;;11.77;8.50;;;27.80;51.30;;;;;;5010307;28;20622;-43
2023/09/11 02:55:05;;;;;;;8.60;7.90;;;27.70;51.30;;;;;;5005811;28;20204;-44
2023/09/11 02:57:31;;;;;;;8.93;8.23;;;27.70;51.80;;;;;;5011794;28;20445;-44
2023/09/11 02:59:56;;;;;;;8.70;7.90;;;27.70;51.60;;;;;;5010673;28;20551;-44
2023/09/11 03:02:22;;;;;;;8.07;7.33;;;27.70;51.70;;;;;;5012374;28;20242;-43
2023/09/11 03:04:51;;;;;;;8.67;7.97;;;27.70;51.60;;;;;;5013727;28;20277;-43
2023/09/11 03:07:17;;;;;;;8.47;7.70;;;27.80;51.60;;;;;;5012992;28;20273;-43
2023/09/11 03:09:44;;;;;;;7.83;7.23;;;27.80;51.60;;;;;;5013454;28;20492;-44
2023/09/11 03:12:10;;;;;;;8.80;7.83;;;27.80;51.50;;;;;;5013863;28;20453;-45
2023/09/11 03:14:36;;;;;;;8.73;7.97;;;27.80;51.50;;;;;;5013071;28;20467;-43
2023/09/11 03:17:01;;;;;;;8.40;7.60;;;27.80;51.30;;;;;;5013858;28;20699;-43
2023/09/11 03:19:27;;;;;;;8.30;7.53;;;27.90;51.30;;;;;;5012769;28;20645;-46
2023/09/11 03:21:54;;;;;;;8.63;7.77;;;27.90;51.80;;;;;;5013607;28;20221;-43
2023/09/11 03:24:20;;;;;;;9.57;8.60;;;27.80;51.00;;;;;;5013466;28;20214;-43
2023/09/11 03:26:49;;;;;;;8.17;7.53;;;27.90;51.10;;;;;;5011377;28;20453;-44
2023/09/11 03:29:15;;;;;;;8.07;7.47;;;27.90;51.10;;;;;;5013364;28;20225;-43
2023/09/11 03:31:41;;;;;;;9.10;7.87;;;27.80;51.60;;;;;;5010363;28;20429;-43
2023/09/11 03:34:06;;;;;;;15.37;8.23;;;27.90;51.10;;;;;;5010036;28;20440;-46
2023/09/11 03:36:32;;;;;;;8.43;7.73;;;27.90;51.10;;;;;;5013516;28;20225;-43
2023/09/11 03:38:58;;;;;;;8.53;7.93;;;27.90;51.10;;;;;;5011293;28;20217;-43
2023/09/11 03:41:23;;;;;;;9.10;8.27;;;27.90;51.00;;;;;;5010810;28;20558;-46
2023/09/11 03:43:49;;;;;;;7.77;7.17;;;27.90;50.90;;;;;;5011517;28;20190;-44
2023/09/11 03:46:14;;;;;;;8.20;7.40;;;27.80;50.70;;;;;;5011513;28;20269;-43
2023/09/11 03:48:41;;;;;;;8.67;7.97;;;27.80;50.70;;;;;;5012363;28;20249;-44
2023/09/11 03:51:06;;;;;;;8.67;7.97;;;27.80;50.70;;;;;;5008809;28;20280;-43
2023/09/11 03:53:33;;;;;;;8.97;8.10;;;27.80;50.80;;;;;;5010084;28;20531;-44
2023/09/11 03:55:59;;;;;;;9.60;8.70;;;27.70;50.80;;;;;;5010217;28;20332;-43
2023/09/11 03:58:25;;;;;;;9.03;8.20;;;27.70;50.80;;;;;;5010634;28;21011;-45
2023/09/11 04:00:50;;;;;;;9.00;8.20;;;27.70;50.80;;;;;;5011140;28;20578;-44
2023/09/11 04:03:16;;;;;;;8.67;7.97;;;27.70;50.90;;;;;;5007954;28;20364;-45
2023/09/11 04:05:42;;;;;;;8.20;7.70;;;27.70;51.00;;;;;;5011326;28;20645;-46
2023/09/11 04:08:08;;;;;;;9.70;8.70;;;27.70;51.00;;;;;;5009217;28;20224;-43
2023/09/11 04:10:34;;;;;;;9.13;8.13;;;27.60;50.90;;;;;;5011104;28;20692;-43
2023/09/11 04:12:59;;;;;;;8.90;8.10;;;27.60;50.90;;;;;;5011950;28;20440;-44
2023/09/11 04:15:25;;;;;;;8.40;7.70;;;27.60;51.00;;;;;;5012231;28;20201;-43
2023/09/11 04:17:54;;;;;;;9.50;8.60;;;27.50;51.00;;;;;;5010722;28;20205;-43
2023/09/11 04:20:20;;;;;;;8.87;8.17;;;27.50;51.00;;;;;;5011201;28;20280;-44
2023/09/11 04:22:46;;;;;;;8.60;7.73;;;27.50;51.20;;;;;;5007159;28;20527;-45
2023/09/11 04:25:12;;;;;;;9.30;8.40;;;27.40;51.30;;;;;;5011424;28;20528;-44
2023/09/11 04:27:38;;;;;;;9.33;8.50;;;27.40;51.30;;;;;;5011867;28;20193;-48
2023/09/11 04:30:04;;;;;;;10.17;9.23;;;27.40;51.40;;;;;;5012633;28;20225;-45
2023/09/11 04:32:30;;;;;;;10.77;8.23;;;27.30;51.20;;;;;;5011674;28;20197;-45
2023/09/11 04:34:56;;;;;;;8.40;7.70;;;27.30;51.40;;;;;;5012087;28;20425;-43
2023/09/11 04:37:21;;;;;;;7.97;7.27;;;27.30;51.50;;;;;;5013070;28;20512;-43
2023/09/11 04:39:47;;;;;;;8.20;7.40;;;27.30;51.50;;;;;;5010516;28;20198;-45
2023/09/11 04:42:12;;;;;;;9.77;8.40;;;27.30;51.50;;;;;;5010317;28;20198;-44
2023/09/11 04:44:38;;;;;;;8.90;8.10;;;27.30;51.50;;;;;;5012375;28;20186;-43
2023/09/11 04:47:06;;;;;;;11.70;7.93;;;27.30;51.50;;;;;;5011365;28;20552;-43
2023/09/11 04:49:32;;;;;;;8.47;7.43;;;27.30;51.50;;;;;;5004085;28;20233;-43
2023/09/11 04:51:57;;;;;;;8.60;8.00;;;27.30;51.50;;;;;;5006585;28;20790;-44
2023/09/11 04:54:23;;;;;;;8.33;7.60;;;27.30;51.50;;;;;;5010444;28;20198;-44
2023/09/11 04:56:48;;;;;;;8.33;7.63;;;27.30;51.50;;;;;;5011678;28;20201;-44
2023/09/11 04:59:14;;;;;;;10.20;8.10;;;27.20;51.50;;;;;;5010564;28;20288;-43
2023/09/11 05:01:41;;;;;;;8.47;7.67;;;27.30;51.50;;;;;;5010306;28;20206;-45
2023/09/11 05:04:06;;;;;;;7.87;7.27;;;27.30;51.60;;;;;;5011373;28;20455;-45
2023/09/11 05:06:32;;;;;;;8.00;7.37;;;27.30;51.70;;;;;;5009385;28;20612;-43
2023/09/11 05:08:58;;;;;;;9.57;8.87;;;27.30;51.70;;;;;;5010885;28;20229;-43
2023/09/11 05:11:24;;;;;;;9.10;8.40;;;27.30;51.60;;;;;;5010769;28;20201;-45
2023/09/11 05:13:49;;;;;;;9.00;8.17;;;27.30;51.50;;;;;;5010244;28;20491;-43
2023/09/11 05:16:17;;;;;;;10.70;8.33;;;27.30;51.50;;;;;;5009571;28;20211;-43
2023/09/11 05:18:43;;;;;;;9.70;8.80;;;27.30;51.60;;;;;;5007881;28;20835;-44
2023/09/11 05:21:08;;;;;;;9.87;8.67;;;27.20;51.70;;;;;;5009327;28;20444;-45
2023/09/11 05:23:34;;;;;;;8.63;7.83;;;27.20;51.80;;;;;;5011031;28;20565;-43
2023/09/11 05:25:59;;;;;;;9.77;8.77;;;27.20;51.80;;;;;;5006785;28;20607;-43
2023/09/11 05:28:25;;;;;;;9.83;8.93;;;27.20;51.80;;;;;;5003520;28;20623;-43
2023/09/11 05:30:50;;;;;;;11.83;9.30;;;27.20;51.80;;;;;;5001777;28;20195;-45
2023/09/11 05:33:16;;;;;;;9.30;8.57;;;27.20;51.80;;;;;;5005494;28;20210;-46
2023/09/11 05:35:44;;;;;;;8.87;8.17;;;27.20;51.70;;;;;;5006990;28;20213;-43
2023/09/11 05:38:10;;;;;;;10.47;9.30;;;27.20;51.70;;;;;;5004296;28;20203;-43
2023/09/11 05:40:35;;;;;;;10.07;9.17;;;27.10;51.70;;;;;;5010485;28;20940;-44
2023/09/11 05:43:01;;;;;;;10.03;9.00;;;26.90;52.40;;;;;;5011820;28;20566;-43
2023/09/11 05:45:27;;;;;;;11.10;10.10;;;26.90;52.50;;;;;;5010754;28;20194;-44
2023/09/11 05:47:52;;;;;;;9.70;8.80;;;26.90;52.60;;;;;;5006504;28;20445;-43
2023/09/11 05:50:18;;;;;;;9.33;8.50;;;26.90;52.60;;;;;;5006177;28;20240;-44
2023/09/11 05:52:44;;;;;;;9.80;8.50;;;26.90;52.60;;;;;;5013003;28;20564;-43
2023/09/11 05:55:09;;;;;;;9.27;8.57;;;27.00;52.60;;;;;;5009964;28;20207;-47
2023/09/11 05:57:35;;;;;;;10.00;9.20;;;27.00;52.40;;;;;;5010769;28;20198;-46
2023/09/11 06:00:01;;;;;;;10.53;9.73;;;27.10;52.40;;;;;;5005881;28;20606;-43
2023/09/11 06:02:26;;;;;;;11.10;10.00;;;27.10;52.10;;;;;;5011128;28;20256;-46
2023/09/11 06:04:52;;;;;;;12.63;9.17;;;27.00;52.10;;;;;;5005123;28;20434;-44
2023/09/11 06:07:19;;;;;;;10.00;9.10;;;26.80;52.50;;;;;;5001283;28;20198;-45
2023/09/11 06:09:44;;;;;;;10.67;9.67;;;26.70;53.00;;;;;;5001314;28;20709;-44
2023/09/11 06:12:10;;;;;;;10.67;9.67;;;26.30;53.80;;;;;;5000825;28;20452;-44
2023/09/11 06:14:37;;;;;;;11.27;10.10;;;26.30;54.10;;;;;;5004399;28;20254;-44
2023/09/11 06:17:05;;;;;;;10.70;9.70;;;26.20;54.20;;;;;;5008400;28;20229;-44
2023/09/11 06:19:30;;;;;;;11.40;10.27;;;26.20;54.50;;;;;;5013989;28;21003;-44
2023/09/11 06:21:56;;;;;;;12.10;10.97;;;26.10;54.70;;;;;;5013925;28;20533;-44
2023/09/11 06:24:21;;;;;;;10.60;9.70;;;25.70;56.00;;;;;;5010268;28;20252;-44
2023/09/11 06:27:00;;;;;;;11.20;9.83;;;25.60;56.50;;;;;;5009459;28;20198;-45
2023/09/11 06:29:26;;;;;;;11.57;10.20;;;25.40;56.80;;;;;;5009233;28;20233;-44
2023/09/11 06:31:51;;;;;;;11.40;9.73;;;25.40;57.50;;;;;;5009569;28;20459;-47
2023/09/11 06:34:17;;;;;;;10.60;9.80;;;25.50;57.30;;;;;;5011266;28;20208;-44
2023/09/11 06:36:42;;;;;;;10.73;9.60;;;25.40;57.70;;;;;;5007559;28;20190;-45
2023/09/11 06:39:08;;;;;;;10.90;9.80;;;25.30;58.10;;;;;;5011159;28;20201;-43
2023/09/11 06:41:33;;;;;;;11.97;10.83;;;25.40;58.20;;;;;;5014568;28;20208;-43
2023/09/11 06:43:59;;;;;;;12.20;9.20;;;25.60;57.90;;;;;;5013740;28;20198;-43
2023/09/11 06:46:24;;;;;;;10.60;9.60;;;25.80;57.60;;;;;;5012188;28;20673;-45
2023/09/11 06:48:50;;;;;;;13.73;11.00;;;25.60;57.90;;;;;;5006724;28;20564;-43
2023/09/11 06:51:16;;;;;;;11.83;10.80;;;25.40;58.50;;;;;;5012271;28;20194;-44
2023/09/11 06:53:42;;;;;;;11.80;10.63;;;25.60;58.50;;;;;;5009149;28;20240;-44
2023/09/11 06:56:08;;;;;;;10.90;10.00;;;25.70;58.50;;;;;;5012328;28;20288;-44
2023/09/11 06:58:33;;;;;;;11.93;10.57;;;25.90;58.20;;;;;;5013288;28;20658;-44
2023/09/11 07:00:59;;;;;;;13.13;9.67;;;25.90;57.80;;;;;;5013961;28;20576;-45
2023/09/11 07:03:24;;;;;;;11.13;10.13;;;25.60;58.20;;;;;;5014000;28;20723;-44
2023/09/11 07:05:51;;;;;;;11.60;10.20;;;25.60;58.40;;;;;;5007313;28;20205;-44
2023/09/11 07:08:16;;;;;;;11.17;10.03;;;25.50;58.70;;;;;;5013998;28;20214;-45
2023/09/11 07:10:48;;;;;;;13.07;10.30;;;25.80;58.20;;;;;;5012211;28;20935;-44
2023/09/11 07:13:14;;;;;;;12.67;11.57;;;25.60;58.20;;;;;;5014121;28;20190;-43
2023/09/11 07:15:39;;;;;;;11.27;10.17;;;25.50;58.90;;;;;;5011158;28;20444;-45
2023/09/11 07:18:05;;;;;;;13.17;12.00;;;25.60;58.70;;;;;;5013823;28;20232;-45
2023/09/11 07:20:30;;;;;;;11.20;10.20;;;25.90;58.20;;;;;;5012663;28;20201;-44
2023/09/11 07:22:56;;;;;;;11.23;10.33;;;26.20;57.80;;;;;;5013949;28;20190;-44
2023/09/11 07:25:22;;;;;;;11.73;10.53;;;26.50;57.10;;;;;;5013766;28;20198;-44
2023/09/11 07:27:48;;;;;;;12.43;10.20;;;26.60;56.40;;;;;;5013926;28;20755;-44
2023/09/11 07:30:14;;;;;;;10.40;9.17;;;26.50;57.00;;;;;;5013145;28;20433;-44
2023/09/11 07:32:40;;;;;;;10.80;9.70;;;26.60;56.80;;;;;;5010653;28;20445;-44
2023/09/11 07:35:07;;;;;;;9.73;8.73;;;26.50;56.50;;;;;;5013569;28;20219;-44
2023/09/11 07:37:33;;;;;;;11.57;10.47;;;26.50;57.20;;;;;;5013796;28;20439;-44
2023/09/11 07:39:58;;;;;;;11.80;10.50;;;26.40;57.20;;;;;;5013456;28;20428;-48
2023/09/11 07:42:24;;;;;;;10.37;9.37;;;26.60;57.20;;;;;;5010816;28;20515;-45
2023/09/11 07:44:51;;;;;;;13.30;11.03;;;26.80;56.80;;;;;;5012048;28;20194;-44
2023/09/11 07:47:16;;;;;;;10.40;9.33;;;26.90;55.70;;;;;;5011693;28;20209;-44
2023/09/11 07:49:42;;;;;;;11.70;10.60;;;27.10;55.70;;;;;;5005148;28;20482;-44
2023/09/11 07:52:07;;;;;;;10.60;9.50;;;27.10;55.20;;;;;;5006064;28;20256;-45
2023/09/11 07:54:33;;;;;;;9.87;9.03;;;27.40;54.40;;;;;;5005077;28;20204;-44
2023/09/11 07:57:01;;;;;;;10.13;9.33;;;27.70;53.50;;;;;;5012012;28;20193;-45
2023/09/11 07:59:26;;;;;;;11.73;9.97;;;27.90;53.10;;;;;;5009313;28;20205;-45
2023/09/11 08:01:52;;;;;;;13.07;9.97;;;28.10;52.60;;;;;;5012134;28;20477;-44
2023/09/11 08:04:18;;;;;;;12.57;9.10;;;28.30;52.40;;;;;;5011129;28;20190;-46
2023/09/11 08:06:43;;;;;;;10.17;9.20;;;28.40;52.20;;;;;;5010112;28;20205;-44
2023/09/11 08:09:09;;;;;;;10.83;9.70;;;28.40;51.90;;;;;;5010531;28;20232;-44
2023/09/11 08:11:39;;;;;;;9.53;8.60;;;28.50;51.70;;;;;;5010223;28;20193;-44
2023/09/11 08:14:05;;;;;;;12.43;9.57;;;28.70;51.30;;;;;;5012126;28;20289;-46
2023/09/11 08:16:31;;;;;;;10.07;9.27;;;28.80;51.00;;;;;;5012896;28;20515;-44
2023/09/11 08:18:57;;;;;;;9.63;8.93;;;29.00;50.50;;;;;;5010069;28;21111;-46
2023/09/11 08:21:22;;;;;;;9.33;8.53;;;29.10;50.70;;;;;;5005629;28;20190;-43
2023/09/11 08:23:48;;;;;;;10.00;9.10;;;29.20;50.70;;;;;;5007449;28;20209;-46
2023/09/11 08:26:14;;;;;;;10.00;9.00;;;29.30;50.20;;;;;;5004622;28;20217;-46
2023/09/11 08:28:39;;;;;;;13.90;10.20;;;29.40;49.80;;;;;;5011640;28;20229;-44
2023/09/11 08:31:05;;;;;;;10.30;9.40;;;29.50;49.40;;;;;;5008892;28;20693;-44
2023/09/11 08:33:30;;;;;;;9.83;8.93;;;29.60;49.40;;;;;;5009761;28;20204;-44
2023/09/11 08:35:56;;;;;;;10.97;9.17;;;29.70;49.20;;;;;;5007284;28;20217;-44
2023/09/11 08:38:22;;;;;;;9.80;8.90;;;29.70;48.80;;;;;;5002838;28;20232;-46
2023/09/11 08:40:48;;;;;;;10.43;8.67;;;29.80;48.90;;;;;;5007125;28;20442;-44
2023/09/11 08:43:13;;;;;;;9.60;8.67;;;30.00;49.00;;;;;;5011948;28;20683;-44
2023/09/11 08:45:39;;;;;;;9.37;8.63;;;30.00;48.20;;;;;;5011592;28;20198;-44
2023/09/11 08:48:14;;;;;;;10.70;9.47;;;30.10;48.00;;;;;;5011439;28;20563;-44
2023/09/11 08:50:50;;;;;;;9.37;8.57;;;30.20;48.00;;;;;;5008857;28;20452;-46
2023/09/11 08:53:18;;;;;;;9.90;9.10;;;30.30;47.50;;;;;;4998992;28;20523;-44
2023/09/11 08:55:45;;;;;;;9.13;8.43;;;30.30;47.30;;;;;;5010776;28;20437;-43
2023/09/11 08:58:12;;;;;;;13.00;8.60;;;30.30;47.30;;;;;;5010394;28;20456;-44
2023/09/11 09:00:38;;;;;;;12.50;10.50;;;30.40;47.30;;;;;;5010252;28;20491;-43
2023/09/11 09:03:05;;;;;;;11.40;9.53;;;30.40;47.80;;;;;;5011794;28;20679;-44
2023/09/11 09:05:32;;;;;;;12.20;9.30;;;30.60;47.10;;;;;;5012000;28;20247;-44
2023/09/11 09:08:00;;;;;;;9.53;8.63;;;30.70;46.90;;;;;;5012247;28;20432;-44
2023/09/11 09:10:26;;;;;;;9.60;8.70;;;30.80;46.50;;;;;;5004760;28;20452;-45
2023/09/11 09:12:53;;;;;;;10.30;8.90;;;30.80;46.40;;;;;;5005322;28;20448;-45
2023/09/11 09:15:21;;;;;;;12.50;8.37;;;30.90;46.40;;;;;;5006798;28;20445;-44
2023/09/11 09:17:46;;;;;;;11.33;10.23;;;30.90;46.30;;;;;;5002401;28;20595;-44
2023/09/11 09:20:13;;;;;;;10.23;9.33;;;30.80;46.40;;;;;;5003041;28;20540;-45
2023/09/11 09:22:56;;;;;;;10.40;9.30;;;30.90;45.70;;;;;;5011693;28;20186;-44
2023/09/11 09:25:22;;;;;;;11.40;9.10;;;31.10;45.90;;;;;;5007450;28;20447;-46
2023/09/11 09:27:48;;;;;;;10.30;9.40;;;31.40;45.70;;;;;;5012048;28;20480;-46
2023/09/11 09:30:36;;;;;;;9.80;8.77;;;31.50;45.30;;;;;;5008343;28;20520;-44
2023/09/11 09:33:02;;;;;;;8.63;7.90;;;31.60;44.90;;;;;;4996986;28;20190;-46
2023/09/11 09:35:32;;;;;;;8.87;7.97;;;31.80;44.70;;;;;;5003610;28;20441;-45
2023/09/11 09:37:59;;;;;;;10.80;8.40;;;31.90;43.70;;;;;;5004113;28;20863;-48
2023/09/11 09:40:36;;;;;;;9.53;8.23;;;31.90;43.80;;;;;;5011308;28;20433;-50
2023/09/11 09:43:04;;;;;;;8.97;8.07;;;31.90;43.20;;;;;;5011287;28;20452;-49
2023/09/11 09:45:35;;;;;;;9.40;7.90;;;32.00;44.10;;;;;;5003336;28;20439;-46
2023/09/11 09:48:20;;;;;;;9.03;7.77;;;32.20;43.70;;;;;;5005220;28;20448;-48
2023/09/11 09:50:58;;;;;;;8.80;8.10;;;32.40;43.00;;;;;;5007914;28;20444;-47
2023/09/11 09:53:31;;;;;;;8.83;7.87;;;32.60;43.00;;;;;;5010051;28;20500;-50
2023/09/11 09:56:01;;;;;;;9.00;7.50;;;32.90;41.90;;;;;;5010364;28;20432;-46
2023/09/11 09:58:30;;;;;;;10.20;8.50;;;33.00;41.40;;;;;;5007563;28;20449;-48
2023/09/11 10:01:01;;;;;;;9.70;7.67;;;33.10;41.10;;;;;;5009945;28;20436;-46
2023/09/11 10:03:27;;;;;;;9.50;8.63;;;33.30;40.80;;;;;;5009763;28;20567;-47
2023/09/11 10:05:52;;;;;;;10.97;8.30;;;33.40;40.70;;;;;;5008755;28;20468;-47
2023/09/11 10:08:18;;;;;;;9.33;7.97;;;33.60;40.90;;;;;;5011442;28;20476;-45
2023/09/11 10:10:44;;;;;;;11.23;7.90;;;33.70;40.40;;;;;;5009582;28;20256;-46
2023/09/11 10:13:15;;;;;;;8.40;7.60;;;33.80;40.10;;;;;;5012656;28;20194;-48
2023/09/11 10:15:43;;;;;;;8.40;7.60;;;33.90;39.90;;;;;;5005535;28;20202;-46
2023/09/11 10:18:12;;;;;;;8.10;6.63;;;34.00;39.80;;;;;;5006879;28;20452;-49
2023/09/11 10:20:38;;;;;;;8.13;7.43;;;34.20;39.30;;;;;;5013429;28;20445;-46
2023/09/11 10:23:05;;;;;;;8.60;7.80;;;34.40;39.40;;;;;;5011336;28;20979;-50
2023/09/11 10:25:56;;;;;;;12.60;7.40;;;34.50;38.70;;;;;;5013357;28;20186;-46
2023/09/11 10:28:32;;;;;;;9.03;8.23;;;34.60;37.20;;;;;;5008597;28;20488;-46
2023/09/11 10:31:05;;;;;;;13.90;7.80;;;34.80;37.30;;;;;;5006332;28;20880;-45
2023/09/11 10:33:31;;;;;;;7.50;6.83;;;34.80;37.20;;;;;;5004427;28;20515;-46
2023/09/11 10:36:03;;;;;;;8.90;7.07;;;35.00;37.50;;;;;;5010160;28;20448;-48
2023/09/11 10:38:31;;;;;;;9.50;7.97;;;35.10;37.10;;;;;;5008009;28;20460;-46
2023/09/11 10:41:00;;;;;;;9.47;8.27;;;35.30;36.30;;;;;;5005068;28;20446;-47
2023/09/11 10:43:26;;;;;;;8.43;7.63;;;35.20;35.70;;;;;;5002166;28;20444;-51
2023/09/11 10:45:52;;;;;;;8.53;6.90;;;34.60;37.00;;;;;;5004184;28;20500;-48
2023/09/11 10:48:31;;;;;;;10.53;7.30;;;34.60;36.30;;;;;;5008574;28;20576;-46
2023/09/11 10:50:58;;;;;;;9.67;7.33;;;34.90;36.40;;;;;;5009873;28;20464;-46
2023/09/11 10:53:31;;;;;;;9.50;7.57;;;35.50;35.50;;;;;;5002576;28;20510;-47
2023/09/11 10:56:00;;;;;;;6.97;6.33;;;35.90;35.20;;;;;;5011665;28;20452;-46
2023/09/11 10:58:29;;;;;;;9.40;6.97;;;36.20;34.30;;;;;;5012455;28;20506;-46
2023/09/11 11:00:56;;;;;;;7.80;7.10;;;36.40;33.10;;;;;;5012397;28;20453;-49
2023/09/11 11:03:30;;;;;;;7.57;6.77;;;36.60;34.00;;;;;;5010093;28;20586;-49
2023/09/11 11:05:57;;;;;;;8.50;7.47;;;36.80;33.80;;;;;;5007487;28;20446;-49
2023/09/11 11:08:23;;;;;;;8.07;7.10;;;37.00;33.70;;;;;;5004903;28;20486;-47
2023/09/11 11:10:57;;;;;;;8.87;7.73;;;37.00;32.90;;;;;;5001734;28;20449;-47
2023/09/11 11:13:23;;;;;;;7.60;6.20;;;37.20;32.70;;;;;;5008463;28;20280;-49
2023/09/11 11:16:08;;;;;;;10.80;6.13;;;37.40;33.30;;;;;;5009987;28;20467;-49
2023/09/11 11:18:35;;;;;;;7.83;6.97;;;37.50;32.70;;;;;;5006466;28;20482;-47
2023/09/11 11:21:00;;;;;;;9.83;6.40;;;37.80;32.40;;;;;;5008104;28;20449;-46
2023/09/11 11:23:31;;;;;;;7.40;6.70;;;37.90;32.50;;;;;;5003014;28;20452;-48
2023/09/11 11:26:06;;;;;;;6.73;6.10;;;38.10;31.30;;;;;;5007979;28;20212;-47
2023/09/11 11:28:43;;;;;;;8.73;7.00;;;38.10;30.40;;;;;;5008916;28;20483;-46
2023/09/11 11:31:14;;;;;;;7.47;6.77;;;38.10;30.60;;;;;;5001109;28;20494;-52
2023/09/11 11:33:40;;;;;;;7.67;6.27;;;38.10;31.30;;;;;;5010681;28;20866;-46
2023/09/11 11:36:07;;;;;;;7.43;6.70;;;38.00;31.80;;;;;;5003673;28;20440;-49
2023/09/11 11:38:34;;;;;;;9.90;7.07;;;38.10;31.60;;;;;;5006998;28;20459;-46
2023/09/11 11:41:02;;;;;;;7.90;7.20;;;38.20;31.20;;;;;;5003449;28;20474;-50
2023/09/11 11:43:29;;;;;;;9.93;7.20;;;38.30;30.80;;;;;;5008792;28;20531;-46
2023/09/11 11:45:56;;;;;;;9.57;7.00;;;38.30;31.00;;;;;;5010257;28;20448;-48
2023/09/11 11:48:22;;;;;;;7.90;6.70;;;38.40;30.60;;;;;;5010478;28;20472;-46
2023/09/11 11:50:48;;;;;;;7.50;6.40;;;38.50;30.20;;;;;;5011462;28;20448;-49
2023/09/11 11:53:19;;;;;;;12.30;7.47;;;38.50;30.30;;;;;;5007554;28;20571;-44
2023/09/11 11:55:44;;;;;;;7.63;6.70;;;38.50;29.70;;;;;;5007400;28;20450;-48
2023/09/11 11:58:12;;;;;;;8.27;7.47;;;38.60;29.50;;;;;;5008409;28;20449;-50
2023/09/11 12:00:39;;;;;;;8.20;6.07;;;38.60;30.00;;;;;;5010392;28;20200;-45
2023/09/11 12:03:07;;;;;;;8.87;6.73;;;38.70;30.00;;;;;;5005794;28;20533;-46
2023/09/11 12:05:40;;;;;;;7.53;6.60;;;38.90;30.00;;;;;;5007821;28;20531;-48
2023/09/11 12:08:11;;;;;;;8.73;7.60;;;38.80;29.80;;;;;;5008462;28;20443;-48
2023/09/11 12:10:44;;;;;;;7.77;7.17;;;38.90;30.00;;;;;;5004268;28;20445;-45
2023/09/11 12:13:13;;;;;;;7.87;7.17;;;39.00;30.50;;;;;;5004846;28;20466;-45
2023/09/11 12:15:39;;;;;;;7.10;6.00;;;39.10;30.00;;;;;;5004894;28;20831;-45
2023/09/11 12:18:05;;;;;;;8.83;6.63;;;39.10;30.40;;;;;;5000176;28;20437;-48
2023/09/11 12:20:31;;;;;;;7.33;6.60;;;39.10;30.50;;;;;;5004707;28;20459;-45
2023/09/11 12:23:01;;;;;;;7.60;6.60;;;39.00;30.20;;;;;;5000364;28;20440;-46
2023/09/11 12:25:27;;;;;;;10.20;6.47;;;39.10;29.90;;;;;;5007174;28;20202;-46
2023/09/11 12:27:54;;;;;;;7.40;6.70;;;39.20;29.60;;;;;;5002668;28;20436;-45
2023/09/11 12:30:20;;;;;;;6.97;5.77;;;39.50;29.50;;;;;;5006004;28;20487;-45
2023/09/11 12:32:46;;;;;;;8.17;6.53;;;39.50;29.70;;;;;;5007103;28;20451;-50
2023/09/11 12:35:12;;;;;;;7.50;5.80;;;39.60;28.70;;;;;;4998581;28;20447;-48
2023/09/11 12:37:40;;;;;;;8.50;7.30;;;39.50;29.50;;;;;;5002624;28;20850;-49
2023/09/11 12:40:09;;;;;;;8.13;6.47;;;39.40;28.70;;;;;;5005704;28;20198;-46
2023/09/11 12:42:39;;;;;;;11.90;7.17;;;39.40;29.00;;;;;;5003680;28;20440;-48